createdAt,value
2022-08-17T00:00:42.590Z,27.52
2022-08-17T00:03:11.624Z,27.00
2022-08-17T00:05:48.907Z,26.60
2022-08-17T00:08:18.668Z,25.25
2022-08-17T00:10:46.793Z,26.88
2022-08-17T00:13:29.570Z,25.08
2022-08-17T00:16:00.573Z,22.83
2022-08-17T00:19:00.935Z,24.08
2022-08-17T00:21:23.904Z,23.38
2022-08-17T00:23:52.425Z,23.98
2022-08-17T00:26:43.144Z,25.60
2022-08-17T00:29:08.458Z,26.70
2022-08-17T00:31:36.374Z,29.67
2022-08-17T00:34:04.846Z,26.60
2022-08-17T00:36:32.246Z,26.38
2022-08-17T00:38:59.398Z,24.20
2022-08-17T00:41:28.148Z,28.17
2022-08-17T00:44:06.092Z,25.48
2022-08-17T00:46:37.327Z,25.27
2022-08-17T00:49:25.140Z,25.95
2022-08-17T00:52:11.923Z,26.42
2022-08-17T00:54:42.521Z,25.73
2022-08-17T00:57:13.959Z,27.83
2022-08-17T00:59:47.183Z,28.33
2022-08-17T01:02:40.352Z,30.10
2022-08-17T01:05:10.236Z,31.23
2022-08-17T01:07:38.017Z,31.67
2022-08-17T01:10:08.388Z,26.70
2022-08-17T01:12:56.712Z,26.75
2022-08-17T01:15:23.794Z,29.35
2022-08-17T01:17:53.263Z,26.60
2022-08-17T01:20:20.449Z,26.65
2022-08-17T01:22:47.455Z,25.65
2022-08-17T01:25:15.267Z,27.05
2022-08-17T01:28:33.452Z,32.47
2022-08-17T01:33:35.589Z,24.77
2022-08-17T01:36:03.615Z,28.35
2022-08-17T01:38:32.025Z,29.80
2022-08-17T01:41:02.977Z,31.30
2022-08-17T01:43:43.604Z,30.48
2022-08-17T01:46:21.074Z,29.10
2022-08-17T01:49:44.383Z,29.23
2022-08-17T01:52:12.142Z,31.05
2022-08-17T01:54:41.335Z,32.10
2022-08-17T01:57:08.629Z,29.63
2022-08-17T01:59:36.489Z,30.08
2022-08-17T02:02:05.278Z,30.58
2022-08-17T02:04:32.253Z,31.23
2022-08-17T02:06:59.298Z,27.25
2022-08-17T02:09:30.040Z,25.58
2022-08-17T02:11:58.869Z,27.85
2022-08-17T02:14:26.521Z,30.08
2022-08-17T02:16:54.488Z,30.75
2022-08-17T02:19:24.585Z,34.83
2022-08-17T02:21:53.877Z,30.60
2022-08-17T02:24:59.732Z,28.10
2022-08-17T02:27:15.985Z,28.70
2022-08-17T02:29:43.029Z,25.17
2022-08-17T02:32:27.619Z,26.42
2022-08-17T02:34:56.510Z,24.65
2022-08-17T02:37:24.047Z,24.48
2022-08-17T02:39:50.995Z,27.83
2022-08-17T02:42:18.461Z,24.52
2022-08-17T02:44:45.325Z,26.88
2022-08-17T02:47:12.606Z,25.77
2022-08-17T02:50:17.675Z,28.10
2022-08-17T02:52:47.476Z,28.67
2022-08-17T02:55:31.435Z,31.92
2022-08-17T02:57:58.729Z,31.02
2022-08-17T03:00:35.579Z,27.83
2022-08-17T03:03:05.383Z,29.25
2022-08-17T03:05:34.742Z,28.63
2022-08-17T03:08:02.215Z,25.77
2022-08-17T03:10:29.794Z,24.25
2022-08-17T03:12:56.840Z,28.17
2022-08-17T03:15:30.489Z,25.73
2022-08-17T03:17:58.924Z,27.90
2022-08-17T03:20:30.898Z,26.23
2022-08-17T03:23:02.690Z,25.48
2022-08-17T03:25:33.344Z,25.63
2022-08-17T03:28:01.932Z,25.85
2022-08-17T03:30:29.203Z,22.67
2022-08-17T03:33:00.138Z,25.52
2022-08-17T03:35:36.524Z,26.33
2022-08-17T03:38:05.155Z,28.15
2022-08-17T03:40:55.729Z,29.88
2022-08-17T03:43:22.447Z,25.40
2022-08-17T03:46:27.022Z,27.15
2022-08-17T03:49:15.868Z,22.88
2022-08-17T03:52:01.434Z,26.02
2022-08-17T03:54:46.870Z,24.52
2022-08-17T03:57:13.896Z,24.23
2022-08-17T03:59:41.104Z,23.27
2022-08-17T04:02:22.291Z,24.88
2022-08-17T04:04:52.558Z,26.65
2022-08-17T04:07:24.963Z,26.42
2022-08-17T04:09:52.024Z,25.38
2022-08-17T04:12:21.442Z,25.23
2022-08-17T04:14:53.208Z,28.23
2022-08-17T04:17:27.349Z,29.67
2022-08-17T04:19:55.822Z,30.05
2022-08-17T04:22:33.203Z,28.60
2022-08-17T04:25:03.732Z,28.33
2022-08-17T04:27:30.826Z,28.80
2022-08-17T04:29:58.558Z,26.75
2022-08-17T04:33:04.385Z,30.90
2022-08-17T04:35:12.480Z,26.92
2022-08-17T04:37:40.650Z,31.52
2022-08-17T04:40:26.548Z,30.88
2022-08-17T04:43:02.799Z,29.70
2022-08-17T04:45:32.317Z,30.52
2022-08-17T04:48:01.453Z,31.60
2022-08-17T04:50:28.397Z,29.35
2022-08-17T04:52:56.642Z,31.80
2022-08-17T04:55:23.864Z,31.35
2022-08-17T04:57:51.983Z,30.42
2022-08-17T05:00:19.178Z,29.85
2022-08-17T05:02:49.593Z,31.30
2022-08-17T05:05:34.477Z,29.73
2022-08-17T05:08:06.018Z,29.40
2022-08-17T05:10:37.296Z,27.88
2022-08-17T05:13:16.087Z,29.13
2022-08-17T05:15:45.123Z,26.42
2022-08-17T05:18:12.681Z,23.17
2022-08-17T05:20:41.421Z,24.15
2022-08-17T05:23:11.272Z,25.52
2022-08-17T05:25:49.158Z,28.02
2022-08-17T05:28:38.158Z,29.80
2022-08-17T05:31:07.249Z,25.23
2022-08-17T05:33:39.584Z,31.35
2022-08-17T05:36:41.581Z,35.58
2022-08-17T05:39:18.238Z,32.47
2022-08-17T05:41:48.618Z,35.33
2022-08-17T05:44:16.981Z,39.47
2022-08-17T05:46:48.955Z,38.40
2022-08-17T05:49:53.995Z,37.65
2022-08-17T05:52:43.370Z,38.35
2022-08-17T05:55:25.928Z,37.83
2022-08-17T05:58:13.216Z,37.20
2022-08-17T06:01:09.522Z,35.90
2022-08-17T06:03:48.760Z,35.03
2022-08-17T06:06:40.579Z,39.85
2022-08-17T06:09:30.123Z,43.38
2022-08-17T06:12:19.702Z,51.22
2022-08-17T06:15:05.244Z,52.55
2022-08-17T06:17:33.103Z,43.15
2022-08-17T06:20:05.838Z,41.70
2022-08-17T06:22:40.807Z,41.63
2022-08-17T06:27:57.277Z,40.28
2022-08-17T06:30:58.350Z,44.15
2022-08-17T06:33:26.153Z,44.75
2022-08-17T06:36:24.665Z,47.00
2022-08-17T06:39:10.406Z,52.42
2022-08-17T06:41:38.131Z,68.72
2022-08-17T06:44:43.186Z,79.07
2022-08-17T06:47:51.308Z,77.88
2022-08-17T06:50:27.389Z,75.43
2022-08-17T06:53:00.354Z,83.00
2022-08-17T06:55:45.249Z,81.70
2022-08-17T06:58:24.239Z,78.40
2022-08-17T07:01:01.640Z,82.65
2022-08-17T07:03:43.848Z,92.60
2022-08-17T07:06:20.739Z,85.57
2022-08-17T07:08:55.575Z,79.57
2022-08-17T07:12:11.974Z,76.75
2022-08-17T07:14:54.125Z,86.25
2022-08-17T07:17:46.924Z,82.53
2022-08-17T07:20:15.075Z,79.20
2022-08-17T07:23:00.229Z,69.93
2022-08-17T07:25:28.567Z,80.95
2022-08-17T07:28:00.297Z,84.60
2022-08-17T07:30:37.091Z,74.50
2022-08-17T07:33:24.936Z,83.00
2022-08-17T07:35:52.395Z,76.32
2022-08-17T07:38:26.992Z,65.25
2022-08-17T07:40:57.757Z,59.35
2022-08-17T07:43:26.185Z,63.13
2022-08-17T07:46:29.926Z,62.55
2022-08-17T07:49:34.015Z,60.63
2022-08-17T07:54:52.950Z,66.68
2022-08-17T07:57:36.118Z,64.75
2022-08-17T08:00:03.239Z,74.32
2022-08-17T08:02:45.464Z,69.45
2022-08-17T08:08:25.205Z,75.47
2022-08-17T08:11:09.178Z,83.50
2022-08-17T08:13:45.090Z,80.45
2022-08-17T08:16:21.493Z,76.30
2022-08-17T08:18:55.676Z,77.28
2022-08-17T08:21:42.854Z,73.57
2022-08-17T08:24:38.843Z,81.75
2022-08-17T08:27:25.385Z,76.43
2022-08-17T08:30:14.186Z,81.35
2022-08-17T08:32:54.020Z,81.22
2022-08-17T08:35:37.342Z,82.68
2022-08-17T08:38:26.797Z,77.93
2022-08-17T08:41:23.238Z,77.50
2022-08-17T08:44:13.249Z,73.90
2022-08-17T08:47:04.158Z,68.65
2022-08-17T08:50:02.177Z,75.88
2022-08-17T08:52:35.712Z,64.13
2022-08-17T08:55:24.348Z,65.75
2022-08-17T08:58:02.739Z,69.70
2022-08-17T09:00:36.367Z,74.35
2022-08-17T09:03:12.338Z,65.65
2022-08-17T09:05:57.677Z,69.70
2022-08-17T09:08:41.112Z,69.03
2022-08-17T09:13:41.426Z,53.67
2022-08-17T09:16:29.846Z,55.38
2022-08-17T09:19:30.457Z,63.17
2022-08-17T09:22:22.270Z,57.72
2022-08-17T09:24:57.005Z,54.28
2022-08-17T09:27:33.597Z,53.03
2022-08-17T09:30:07.881Z,48.75
2022-08-17T09:33:05.674Z,46.22
2022-08-17T09:35:39.560Z,44.15
2022-08-17T09:38:32.638Z,46.38
2022-08-17T09:41:22.199Z,46.38
2022-08-17T09:44:06.943Z,44.40
2022-08-17T09:46:40.904Z,37.15
2022-08-17T09:49:23.160Z,37.58
2022-08-17T09:52:02.644Z,33.65
2022-08-17T09:54:38.990Z,33.60
2022-08-17T09:57:29.906Z,31.02
2022-08-17T10:00:12.703Z,32.25
2022-08-17T10:02:45.456Z,32.75
2022-08-17T10:05:28.680Z,31.42
2022-08-17T10:10:36.936Z,29.80
2022-08-17T10:13:15.420Z,29.27
2022-08-17T10:16:03.472Z,25.70
2022-08-17T10:18:39.269Z,23.95
2022-08-17T10:21:31.165Z,24.88
2022-08-17T10:24:33.056Z,24.35
2022-08-17T10:27:03.005Z,26.80
2022-08-17T10:29:49.817Z,24.83
2022-08-17T10:32:56.825Z,26.10
2022-08-17T10:35:50.292Z,26.77
2022-08-17T10:38:26.094Z,29.02
2022-08-17T10:41:20.893Z,24.77
2022-08-17T10:44:36.794Z,26.55
2022-08-17T10:46:52.158Z,25.58
2022-08-17T10:49:21.128Z,24.30
2022-08-17T10:52:00.909Z,23.35
2022-08-17T10:54:50.481Z,22.55
2022-08-17T10:57:40.683Z,26.50
2022-08-17T11:00:14.878Z,26.63
2022-08-17T11:02:50.076Z,24.67
2022-08-17T11:05:47.871Z,19.65
2022-08-17T11:08:36.369Z,22.20
2022-08-17T11:11:23.236Z,20.83
2022-08-17T11:14:17.778Z,19.05
2022-08-17T11:17:08.896Z,21.98
2022-08-17T11:20:00.884Z,19.35
2022-08-17T11:22:46.666Z,18.55
2022-08-17T11:25:19.634Z,19.25
2022-08-17T11:27:53.646Z,19.33
2022-08-17T11:30:41.062Z,18.70
2022-08-17T11:33:29.187Z,15.65
2022-08-17T11:36:04.138Z,16.73
2022-08-17T11:39:02.749Z,19.02
2022-08-17T11:42:13.338Z,15.57
2022-08-17T11:44:58.811Z,15.10
2022-08-17T11:48:34.662Z,17.40
2022-08-17T11:51:35.240Z,16.35
2022-08-17T11:54:32.825Z,18.52
2022-08-17T11:57:21.753Z,19.08
2022-08-17T12:00:11.992Z,17.90
2022-08-17T12:02:47.750Z,18.30
2022-08-17T12:05:16.872Z,18.52
2022-08-17T12:08:22.685Z,17.65
2022-08-17T12:11:16.417Z,20.27
2022-08-17T12:14:04.774Z,18.58
2022-08-17T12:16:31.740Z,18.80
2022-08-17T12:19:02.399Z,17.20
2022-08-17T12:21:48.860Z,15.60
2022-08-17T12:24:37.408Z,17.38
2022-08-17T12:27:07.146Z,17.38
2022-08-17T12:29:39.188Z,18.00
2022-08-17T12:32:12.908Z,18.50
2022-08-17T12:34:42.633Z,16.40
2022-08-17T12:37:22.483Z,17.50
2022-08-17T12:40:03.812Z,16.45
2022-08-17T12:42:35.963Z,18.00
2022-08-17T12:45:23.401Z,18.90
2022-08-17T12:48:00.782Z,22.33
2022-08-17T12:50:30.286Z,16.23
2022-08-17T12:53:02.053Z,16.30
2022-08-17T12:55:36.348Z,17.52
2022-08-17T12:58:42.081Z,14.85
2022-08-17T13:01:15.188Z,16.65
2022-08-17T13:03:49.508Z,16.02
2022-08-17T13:06:34.891Z,15.88
2022-08-17T13:09:12.208Z,16.88
2022-08-17T13:11:52.317Z,17.30
2022-08-17T13:14:19.944Z,17.77
2022-08-17T13:17:01.796Z,15.27
2022-08-17T13:19:41.031Z,14.80
2022-08-17T13:22:12.857Z,14.02
2022-08-17T13:24:53.265Z,14.77
2022-08-17T13:27:23.047Z,14.10
2022-08-17T13:29:53.723Z,13.50
2022-08-17T13:32:53.834Z,15.52
2022-08-17T13:35:39.569Z,14.35
2022-08-17T13:38:16.013Z,14.52
2022-08-17T13:40:50.254Z,15.13
2022-08-17T13:43:44.726Z,13.80
2022-08-17T13:46:23.891Z,14.77
2022-08-17T13:49:18.068Z,14.38
2022-08-17T13:51:47.070Z,12.57
2022-08-17T13:54:20.282Z,12.27
2022-08-17T13:56:55.461Z,12.82
2022-08-17T13:59:52.956Z,11.73
2022-08-17T14:02:23.414Z,11.10
2022-08-17T14:04:54.633Z,10.88
2022-08-17T14:07:32.142Z,9.93
2022-08-17T14:10:04.252Z,10.15
2022-08-17T14:12:33.085Z,9.50
2022-08-17T14:15:00.098Z,10.10
2022-08-17T14:17:35.044Z,8.90
2022-08-17T14:20:09.403Z,9.10
2022-08-17T14:22:39.788Z,9.70
2022-08-17T14:25:08.668Z,8.70
2022-08-17T14:27:53.269Z,9.88
2022-08-17T14:30:26.886Z,7.95
2022-08-17T14:32:58.036Z,8.88
2022-08-17T14:35:27.820Z,7.82
2022-08-17T14:37:56.269Z,8.15
2022-08-17T14:40:27.471Z,8.60
2022-08-17T14:42:56.546Z,8.50
2022-08-17T14:45:31.762Z,8.40
2022-08-17T14:48:04.152Z,8.52
2022-08-17T14:50:32.066Z,8.60
2022-08-17T14:53:03.926Z,8.40
2022-08-17T14:55:31.151Z,8.00
2022-08-17T14:57:59.565Z,7.03
2022-08-17T15:00:26.935Z,7.85
2022-08-17T15:02:58.489Z,8.60
2022-08-17T15:05:31.410Z,9.43
2022-08-17T15:10:29.323Z,11.55
2022-08-17T15:12:56.574Z,11.63
2022-08-17T15:15:23.615Z,12.02
2022-08-17T15:17:51.571Z,11.95
2022-08-17T15:20:21.469Z,12.13
2022-08-17T15:22:50.043Z,12.00
2022-08-17T15:25:19.220Z,13.73
2022-08-17T15:27:47.575Z,13.13
2022-08-17T15:30:15.521Z,13.52
2022-08-17T15:32:50.624Z,14.27
2022-08-17T15:35:19.222Z,12.45
2022-08-17T15:38:08.042Z,11.57
2022-08-17T15:40:40.464Z,13.20
2022-08-17T15:43:39.108Z,12.52
2022-08-17T15:46:12.051Z,12.27
2022-08-17T15:51:21.765Z,11.18
2022-08-17T15:53:52.462Z,9.50
2022-08-17T15:56:19.895Z,9.93
2022-08-17T15:58:49.504Z,10.27
2022-08-17T16:02:15.404Z,11.40
2022-08-17T16:04:29.871Z,11.65
2022-08-17T16:06:53.749Z,11.02
2022-08-17T16:09:20.863Z,11.00
2022-08-17T16:11:55.227Z,11.05
2022-08-17T16:14:24.079Z,9.88
2022-08-17T16:16:51.681Z,10.57
2022-08-17T16:19:18.983Z,10.45
2022-08-17T16:21:45.889Z,9.55
2022-08-17T16:24:14.842Z,9.32
2022-08-17T16:26:42.193Z,9.65
2022-08-17T16:29:09.612Z,9.25
2022-08-17T16:31:37.832Z,9.60
2022-08-17T16:34:17.603Z,10.00
2022-08-17T16:36:55.150Z,9.82
2022-08-17T16:39:29.637Z,11.10
2022-08-17T16:41:57.522Z,11.25
2022-08-17T16:44:27.476Z,11.88
2022-08-17T16:46:54.546Z,12.50
2022-08-17T16:49:35.101Z,11.95
2022-08-17T16:52:04.765Z,10.30
2022-08-17T16:54:31.906Z,13.15
2022-08-17T16:56:59.214Z,9.40
2022-08-17T16:59:30.829Z,9.85
2022-08-17T17:04:35.372Z,10.32
2022-08-17T17:07:33.863Z,10.75
2022-08-17T17:10:13.868Z,11.70
2022-08-17T17:13:01.212Z,11.38
2022-08-17T17:15:39.613Z,10.48
2022-08-17T17:18:11.542Z,12.38
2022-08-17T17:20:47.710Z,12.82
2022-08-17T17:23:34.996Z,12.68
2022-08-17T17:26:17.208Z,12.93
2022-08-17T17:29:08.828Z,14.35
2022-08-17T17:31:45.985Z,13.30
2022-08-17T17:34:16.554Z,12.90
2022-08-17T17:36:51.879Z,14.52
2022-08-17T17:39:31.923Z,12.95
2022-08-17T17:42:02.824Z,14.18
2022-08-17T17:44:38.419Z,14.45
2022-08-17T17:47:05.944Z,13.57
2022-08-17T17:49:45.022Z,15.38
2022-08-17T17:52:53.204Z,14.50
2022-08-17T17:55:39.284Z,13.13
2022-08-17T17:58:49.765Z,14.63
2022-08-17T18:01:25.368Z,14.65
2022-08-17T18:04:20.509Z,15.85
2022-08-17T18:07:00.244Z,14.95
2022-08-17T18:09:39.371Z,13.93
2022-08-17T18:12:24.458Z,16.05
2022-08-17T18:15:03.514Z,14.43
2022-08-17T18:17:31.178Z,15.23
2022-08-17T18:19:58.155Z,17.40
2022-08-17T18:22:25.953Z,14.82
2022-08-17T18:24:58.829Z,14.38
2022-08-17T18:27:38.397Z,15.68
2022-08-17T18:30:14.651Z,14.52
2022-08-17T18:32:43.629Z,14.80
2022-08-17T18:35:16.519Z,16.13
2022-08-17T18:37:54.121Z,16.27
2022-08-17T18:40:21.447Z,15.70
2022-08-17T18:43:44.171Z,15.88
2022-08-17T18:46:28.852Z,17.17
2022-08-17T18:49:03.009Z,17.98
2022-08-17T18:51:41.693Z,18.08
2022-08-17T18:54:17.970Z,20.70
2022-08-17T18:56:54.089Z,17.15
2022-08-17T18:59:45.558Z,18.88
2022-08-17T19:02:18.227Z,20.52
2022-08-17T19:05:02.609Z,17.92
2022-08-17T19:07:34.717Z,20.02
2022-08-17T19:10:20.129Z,18.92
2022-08-17T19:13:12.361Z,19.60
2022-08-17T19:15:45.740Z,20.98
2022-08-17T19:18:43.840Z,19.20
2022-08-17T19:21:26.042Z,19.92
2022-08-17T19:24:06.793Z,20.65
2022-08-17T19:26:54.533Z,18.75
2022-08-17T19:29:50.116Z,18.67
2022-08-17T19:32:21.577Z,19.23
2022-08-17T19:34:49.223Z,19.60
2022-08-17T19:37:54.401Z,18.48
2022-08-17T19:40:54.251Z,16.13
2022-08-17T19:43:44.107Z,17.58
2022-08-17T19:46:24.607Z,18.30
2022-08-17T19:49:10.914Z,17.55
2022-08-17T19:51:51.973Z,17.17
2022-08-17T19:54:33.608Z,18.27
2022-08-17T19:57:16.747Z,18.42
2022-08-17T20:00:10.690Z,16.80
2022-08-17T20:02:45.581Z,19.08
2022-08-17T20:05:27.132Z,17.98
2022-08-17T20:08:07.575Z,17.17
2022-08-17T20:10:38.758Z,19.17
2022-08-17T20:13:11.001Z,20.10
2022-08-17T20:15:41.259Z,19.42
2022-08-17T20:18:37.844Z,19.30
2022-08-17T20:21:29.803Z,16.70
2022-08-17T20:24:21.489Z,17.83
2022-08-17T20:26:59.645Z,18.42
2022-08-17T20:29:51.971Z,18.52
2022-08-17T20:32:25.316Z,16.80
2022-08-17T20:35:03.832Z,19.92
2022-08-17T20:37:34.142Z,18.60
2022-08-17T20:40:01.086Z,20.55
2022-08-17T20:42:30.969Z,17.88
2022-08-17T20:45:05.786Z,19.73
2022-08-17T20:47:50.649Z,20.40
2022-08-17T20:50:37.888Z,21.48
2022-08-17T20:53:13.525Z,18.38
2022-08-17T20:55:52.225Z,21.52
2022-08-17T20:58:30.857Z,20.23
2022-08-17T21:00:58.621Z,20.83
2022-08-17T21:03:28.582Z,20.67
2022-08-17T21:06:18.157Z,23.00
2022-08-17T21:08:54.301Z,21.88
2022-08-17T21:12:03.462Z,21.15
2022-08-17T21:14:34.235Z,20.98
2022-08-17T21:17:29.698Z,20.58
2022-08-17T21:20:14.778Z,21.00
2022-08-17T21:23:03.592Z,20.52
2022-08-17T21:25:58.110Z,21.67
2022-08-17T21:29:01.196Z,21.63
2022-08-17T21:31:45.379Z,22.00
2022-08-17T21:34:17.395Z,21.80
2022-08-17T21:36:45.687Z,20.17
2022-08-17T21:39:39.461Z,20.85
2022-08-17T21:42:07.203Z,20.38
2022-08-17T21:44:36.873Z,19.17
2022-08-17T21:47:20.527Z,19.05
2022-08-17T21:49:50.037Z,21.00
2022-08-17T21:52:20.036Z,19.95
2022-08-17T21:54:57.636Z,20.38
2022-08-17T21:57:27.681Z,21.58
2022-08-17T22:00:00.732Z,18.30
2022-08-17T22:02:32.397Z,21.27
2022-08-17T22:05:07.090Z,21.30
2022-08-17T22:07:59.965Z,18.80
2022-08-17T22:10:51.208Z,19.47
2022-08-17T22:13:18.104Z,18.95
2022-08-17T22:16:28.671Z,20.10
2022-08-17T22:19:00.725Z,21.23
2022-08-17T22:21:28.032Z,19.70
2022-08-17T22:24:05.198Z,19.08
2022-08-17T22:26:59.479Z,20.27
2022-08-17T22:29:56.872Z,19.98
2022-08-17T22:32:39.329Z,18.50
2022-08-17T22:35:36.764Z,20.60
2022-08-17T22:38:18.944Z,20.33
2022-08-17T22:40:52.110Z,20.83
2022-08-17T22:43:25.899Z,18.52
2022-08-17T22:45:56.818Z,20.13
2022-08-17T22:48:27.197Z,19.15
2022-08-17T22:51:13.411Z,20.13
2022-08-17T22:54:15.528Z,21.70
2022-08-17T22:57:19.672Z,19.73
2022-08-17T22:59:53.378Z,18.88
2022-08-17T23:02:24.832Z,19.70
2022-08-17T23:04:57.650Z,19.75
2022-08-17T23:07:24.668Z,19.52
2022-08-17T23:09:54.900Z,20.65
2022-08-17T23:12:26.461Z,19.15
2022-08-17T23:15:01.942Z,18.65
2022-08-17T23:17:33.915Z,17.58
2022-08-17T23:20:08.604Z,16.75
2022-08-17T23:22:38.084Z,18.63
2022-08-17T23:25:26.789Z,17.73
2022-08-17T23:28:31.581Z,17.67
2022-08-17T23:30:58.796Z,17.13
2022-08-17T23:33:30.270Z,18.58
2022-08-17T23:36:00.419Z,18.05
2022-08-17T23:38:48.297Z,17.73
2022-08-17T23:41:18.554Z,17.33
2022-08-17T23:43:48.092Z,17.90
2022-08-17T23:46:16.188Z,16.40
2022-08-17T23:48:45.877Z,17.50
2022-08-17T23:51:17.110Z,17.30
2022-08-17T23:53:48.170Z,16.85
2022-08-17T23:56:16.379Z,17.55
2022-08-17T23:58:44.948Z,16.73
